History for ISMITHSP3

Gilbert Hill, Smith's, Smith's Parish — Current Conditions
Daily Summary for January 20, 2019
  Current: High: Low: Average:
Temperature: 69.2°F 72.2°F 64.6°F 68.4°F
Dew Point: 64.0°F 65.0°F 56.0°F 61.5°F
Humidity: 82% 88% 73% 79%
Wind Speed: 14.0mph 32.0mph - 12.7mph
Wind Gust: 26.0mph 37.0mph - -
Wind: SE - - SE
Pressure: 29.98in 30.17in 29.97in -
Precipitation: 0.05in      
Solar Radiation: 0 watts/m^2      
UV Index: 0.0      
Statistics for the rest of the month
    High: Low: Average:
Temperature:   74.4°F 56.6°F 65.8°F
Dew Point:   71.0°F 44.0°F 45.3°F
Humidity:   96.0% 50.0% 60.0%
Wind Speed:   33.0mph from the West - 5.9mph
Wind Gust:   44.0mph from the NW - -
Wind:   - - WSW
Pressure:   30.34in 29.61in -
Precipitation:   3.65in    
ISMITHSP3 Weather Graph
Tabular Data for January 20, 2019
Time Temp. Dew Point Pressure Wind Gust Humidity Rainfall Solar Radiation
00:00 64.6°F 56.0°F 30.17in 9.0mph 73% 0.00in 0.00 watts/m^2
00:15 64.9°F 56.0°F 30.17in 9.0mph 73% 0.00in 0.00 watts/m^2
00:30 64.9°F 56.0°F 30.16in 10.0mph 74% 0.00in 0.00 watts/m^2
00:45 64.9°F 56.0°F 30.16in 10.0mph 73% 0.00in 0.00 watts/m^2
01:00 64.9°F 56.0°F 30.15in 9.0mph 74% 0.00in 0.00 watts/m^2
01:15 64.9°F 56.0°F 30.15in 12.0mph 74% 0.00in 0.00 watts/m^2
01:30 65.0°F 57.0°F 30.14in 11.0mph 75% 0.00in 0.00 watts/m^2
01:45 65.1°F 57.0°F 30.13in 11.0mph 75% 0.00in 0.00 watts/m^2
02:00 65.0°F 57.0°F 30.14in 12.0mph 75% 0.00in 0.00 watts/m^2
02:15 65.1°F 57.0°F 30.13in 12.0mph 75% 0.00in 0.00 watts/m^2
02:30 64.9°F 57.0°F 30.13in 14.0mph 75% 0.00in 0.00 watts/m^2
02:45 65.1°F 58.0°F 30.12in 11.0mph 78% 0.00in 0.00 watts/m^2
03:00 65.4°F 58.0°F 30.12in 12.0mph 78% 0.00in 0.00 watts/m^2
03:15 65.4°F 57.0°F 30.12in 14.0mph 75% 0.00in 0.00 watts/m^2
03:30 65.2°F 58.0°F 30.11in 13.0mph 78% 0.00in 0.00 watts/m^2
03:45 65.2°F 59.0°F 30.11in 13.0mph 79% 0.00in 0.00 watts/m^2
04:00 65.2°F 58.0°F 30.11in 12.0mph 78% 0.00in 0.00 watts/m^2
04:15 65.3°F 59.0°F 30.10in 15.0mph 80% 0.00in 0.00 watts/m^2
04:30 65.3°F 59.0°F 30.10in 13.0mph 81% 0.00in 0.00 watts/m^2
04:45 65.4°F 59.0°F 30.10in 14.0mph 81% 0.00in 0.00 watts/m^2
05:00 65.3°F 60.0°F 30.10in 14.0mph 84% 0.00in 0.00 watts/m^2
05:15 65.1°F 61.0°F 30.10in 15.0mph 86% 0.00in 0.00 watts/m^2
05:30 65.4°F 62.0°F 30.09in 16.0mph 87% 0.00in 0.00 watts/m^2
05:45 65.5°F 62.0°F 30.09in 18.0mph 87% 0.00in 0.00 watts/m^2
06:00 64.8°F 61.0°F 30.09in 18.0mph 88% 0.05in 0.00 watts/m^2
06:15 65.2°F 61.0°F 30.09in 19.0mph 87% 0.05in 0.00 watts/m^2
06:30 65.8°F 62.0°F 30.10in 16.0mph 87% 0.05in 0.00 watts/m^2
06:45 65.8°F 61.0°F 30.10in 18.0mph 85% 0.01in 0.00 watts/m^2
07:00 65.9°F 62.0°F 30.10in 14.0mph 87% 0.00in 0.00 watts/m^2
07:15 66.0°F 61.0°F 30.10in 21.0mph 85% 0.00in 7.00 watts/m^2
07:30 66.4°F 62.0°F 30.11in 20.0mph 86% 0.00in 21.00 watts/m^2
07:45 66.6°F 62.0°F 30.11in 19.0mph 85% 0.00in 40.00 watts/m^2
08:00 67.3°F 62.0°F 30.11in 16.0mph 84% 0.00in 47.00 watts/m^2
08:15 67.8°F 63.0°F 30.11in 18.0mph 84% 0.00in 121.00 watts/m^2
08:30 68.4°F 63.0°F 30.11in 19.0mph 82% 0.00in 199.00 watts/m^2
08:45 68.9°F 63.0°F 30.11in 20.0mph 82% 0.00in 104.00 watts/m^2
09:00 69.5°F 63.0°F 30.11in 25.0mph 81% 0.00in 390.00 watts/m^2
09:15 69.9°F 64.0°F 30.11in 25.0mph 80% 0.00in 499.00 watts/m^2
09:30 70.3°F 64.0°F 30.11in 24.0mph 79% 0.00in 497.00 watts/m^2
09:45 70.1°F 63.0°F 30.11in 24.0mph 79% 0.00in 454.00 watts/m^2
10:00 70.7°F 64.0°F 30.11in 23.0mph 78% 0.00in 202.00 watts/m^2
10:15 71.3°F 64.0°F 30.11in 22.0mph 77% 0.00in 471.00 watts/m^2
10:30 71.0°F 64.0°F 30.11in 26.0mph 78% 0.00in 617.00 watts/m^2
10:45 72.1°F 65.0°F 30.11in 22.0mph 77% 0.00in 719.00 watts/m^2
11:00 71.7°F 64.0°F 30.10in 26.0mph 77% 0.00in 448.00 watts/m^2
11:15 71.0°F 64.0°F 30.10in 29.0mph 79% 0.00in 570.00 watts/m^2
11:30 71.9°F 64.0°F 30.09in 27.0mph 76% 0.00in 649.00 watts/m^2
11:45 72.2°F 64.0°F 30.08in 26.0mph 75% 0.00in 657.00 watts/m^2
12:00 71.8°F 64.0°F 30.07in 29.0mph 76% 0.00in 770.00 watts/m^2
12:15 71.7°F 64.0°F 30.05in 28.0mph 76% 0.00in 703.00 watts/m^2
12:30 72.1°F 64.0°F 30.04in 28.0mph 75% 0.00in 717.00 watts/m^2
12:45 71.4°F 64.0°F 30.03in 32.0mph 76% 0.00in 701.00 watts/m^2
13:00 71.5°F 64.0°F 30.02in 32.0mph 77% 0.00in 659.00 watts/m^2
13:15 71.4°F 64.0°F 30.00in 32.0mph 76% 0.00in 708.00 watts/m^2
13:30 71.5°F 64.0°F 30.00in 34.0mph 76% 0.00in 701.00 watts/m^2
13:45 71.3°F 64.0°F 29.99in 34.0mph 77% 0.00in 680.00 watts/m^2
14:00 71.0°F 63.0°F 29.98in 36.0mph 77% 0.00in 468.00 watts/m^2
14:15 70.9°F 63.0°F 29.97in 37.0mph 76% 0.00in 482.00 watts/m^2
14:30 71.2°F 63.0°F 29.98in 36.0mph 75% 0.00in 594.00 watts/m^2
14:45 71.3°F 63.0°F 29.98in 29.0mph 75% 0.00in 497.00 watts/m^2
15:00 71.0°F 63.0°F 29.98in 34.0mph 77% 0.00in 218.00 watts/m^2
15:15 71.0°F 63.0°F 29.98in 31.0mph 76% 0.00in 258.00 watts/m^2
15:30 71.0°F 63.0°F 29.99in 30.0mph 76% 0.00in 167.00 watts/m^2
15:45 71.3°F 63.0°F 29.99in 27.0mph 76% 0.00in 239.00 watts/m^2
16:00 71.5°F 64.0°F 29.99in 25.0mph 76% 0.00in 362.00 watts/m^2
16:15 70.2°F 63.0°F 29.99in 26.0mph 79% 0.00in 97.00 watts/m^2
16:30 70.3°F 64.0°F 29.98in 26.0mph 80% 0.00in 179.00 watts/m^2
16:45 69.8°F 64.0°F 29.98in 27.0mph 81% 0.00in 72.00 watts/m^2
17:00 70.6°F 63.0°F 29.98in 29.0mph 78% 0.00in 121.00 watts/m^2
17:15 69.6°F 64.0°F 29.98in 32.0mph 81% 0.00in 32.00 watts/m^2
17:30 69.3°F 64.0°F 29.98in 26.0mph 82% 0.00in 9.00 watts/m^2
Comma Delimited File
Powered by Weather Underground, Inc.